Terminal Aerodrome Forecast
Issued by NWS

Home | Current Version | Previous Version | Text Only | Print | Product List | Glossary On
Versions: 1 2 3 4 5 6 7 8 9 10 11 12 13 14 15 16 17 18 19 20 21 22
372
FTUS41 KCAR 121635 AAC
TAFPQI
TAF AMD
KPQI 121635Z 1217/1312 04008KT 3/4SM -SN BR BKN015 OVC025
     FM121800 10010KT 3/4SM -SN BR OVC008
     FM122100 10012G20KT 3/4SM -SN BLSN OVC006
     FM130600 08014G22KT 1 1/2SM -SNRA OVC003=

USA.gov is the U.S. government's official web portal to all federal, state and local government web resources and services.